sensor_id;sensor_type;location;lat;lon;timestamp;P1;durP1;ratioP1;P2;durP2;ratioP2
56171;SDS011;42052;41.634;-0.946;2023-03-11T00:00:28;3.03;;;1.40;;
56171;SDS011;42052;41.634;-0.946;2023-03-11T00:03:18;3.35;;;1.67;;
56171;SDS011;42052;41.634;-0.946;2023-03-11T00:06:07;2.50;;;0.98;;
56171;SDS011;42052;41.634;-0.946;2023-03-11T00:08:54;2.15;;;1.08;;
56171;SDS011;42052;41.634;-0.946;2023-03-11T00:11:40;2.95;;;1.33;;
56171;SDS011;42052;41.634;-0.946;2023-03-11T00:14:26;3.40;;;1.20;;
56171;SDS011;42052;41.634;-0.946;2023-03-11T00:17:12;4.85;;;1.05;;
56171;SDS011;42052;41.634;-0.946;2023-03-11T00:19:58;3.95;;;1.20;;
56171;SDS011;42052;41.634;-0.946;2023-03-11T00:22:45;2.40;;;1.17;;
56171;SDS011;42052;41.634;-0.946;2023-03-11T00:25:32;1.80;;;1.00;;
56171;SDS011;42052;41.634;-0.946;2023-03-11T00:28:19;2.22;;;0.90;;
56171;SDS011;42052;41.634;-0.946;2023-03-11T00:31:11;1.70;;;0.90;;
56171;SDS011;42052;41.634;-0.946;2023-03-11T00:33:58;1.98;;;1.00;;
56171;SDS011;42052;41.634;-0.946;2023-03-11T00:36:44;2.78;;;1.35;;
56171;SDS011;42052;41.634;-0.946;2023-03-11T00:39:31;2.10;;;1.00;;
56171;SDS011;42052;41.634;-0.946;2023-03-11T00:42:17;2.22;;;1.20;;
56171;SDS011;42052;41.634;-0.946;2023-03-11T00:45:03;2.38;;;1.10;;
56171;SDS011;42052;41.634;-0.946;2023-03-11T00:47:50;3.90;;;1.30;;
56171;SDS011;42052;41.634;-0.946;2023-03-11T00:50:37;2.38;;;1.20;;
56171;SDS011;42052;41.634;-0.946;2023-03-11T00:53:23;3.15;;;1.20;;
56171;SDS011;42052;41.634;-0.946;2023-03-11T00:56:10;2.58;;;1.10;;
56171;SDS011;42052;41.634;-0.946;2023-03-11T00:58:58;1.92;;;1.10;;
56171;SDS011;42052;41.634;-0.946;2023-03-11T01:01:45;3.35;;;1.15;;
56171;SDS011;42052;41.634;-0.946;2023-03-11T01:04:31;2.83;;;1.15;;
56171;SDS011;42052;41.634;-0.946;2023-03-11T01:07:17;3.22;;;1.13;;
56171;SDS011;42052;41.634;-0.946;2023-03-11T01:10:04;2.03;;;1.10;;
56171;SDS011;42052;41.634;-0.946;2023-03-11T01:12:51;2.50;;;1.10;;
56171;SDS011;42052;41.634;-0.946;2023-03-11T01:15:37;1.70;;;0.93;;
56171;SDS011;42052;41.634;-0.946;2023-03-11T01:18:24;1.83;;;1.00;;
56171;SDS011;42052;41.634;-0.946;2023-03-11T01:21:10;1.80;;;1.00;;
56171;SDS011;42052;41.634;-0.946;2023-03-11T01:23:56;2.58;;;1.00;;
56171;SDS011;42052;41.634;-0.946;2023-03-11T01:26:42;2.78;;;1.20;;
56171;SDS011;42052;41.634;-0.946;2023-03-11T01:29:29;2.03;;;1.20;;
56171;SDS011;42052;41.634;-0.946;2023-03-11T01:32:15;2.70;;;1.20;;
56171;SDS011;42052;41.634;-0.946;2023-03-11T01:35:01;3.42;;;1.00;;
56171;SDS011;42052;41.634;-0.946;2023-03-11T01:37:47;1.92;;;1.10;;
56171;SDS011;42052;41.634;-0.946;2023-03-11T01:40:37;1.95;;;1.25;;
56171;SDS011;42052;41.634;-0.946;2023-03-11T01:49:36;3.10;;;1.10;;
56171;SDS011;42052;41.634;-0.946;2023-03-11T01:52:26;2.28;;;1.13;;
56171;SDS011;42052;41.634;-0.946;2023-03-11T01:55:14;2.97;;;1.08;;
56171;SDS011;42052;41.634;-0.946;2023-03-11T01:58:04;3.13;;;1.17;;
56171;SDS011;42052;41.634;-0.946;2023-03-11T02:00:52;2.35;;;1.00;;
56171;SDS011;42052;41.634;-0.946;2023-03-11T02:03:39;2.35;;;1.10;;
56171;SDS011;42052;41.634;-0.946;2023-03-11T02:06:26;2.95;;;1.20;;
56171;SDS011;42052;41.634;-0.946;2023-03-11T02:09:13;2.67;;;0.98;;
56171;SDS011;42052;41.634;-0.946;2023-03-11T02:12:00;2.45;;;1.02;;
56171;SDS011;42052;41.634;-0.946;2023-03-11T02:14:47;1.77;;;0.80;;
56171;SDS011;42052;41.634;-0.946;2023-03-11T02:17:36;2.60;;;1.10;;
56171;SDS011;42052;41.634;-0.946;2023-03-11T02:27:04;5.45;;;1.08;;
56171;SDS011;42052;41.634;-0.946;2023-03-11T02:29:55;2.10;;;1.00;;
56171;SDS011;42052;41.634;-0.946;2023-03-11T02:32:44;1.58;;;1.02;;
56171;SDS011;42052;41.634;-0.946;2023-03-11T02:35:32;2.03;;;1.10;;
56171;SDS011;42052;41.634;-0.946;2023-03-11T02:38:19;1.95;;;1.00;;
56171;SDS011;42052;41.634;-0.946;2023-03-11T02:41:05;2.63;;;1.10;;
56171;SDS011;42052;41.634;-0.946;2023-03-11T02:43:51;2.47;;;1.00;;
56171;SDS011;42052;41.634;-0.946;2023-03-11T02:46:39;1.95;;;1.00;;
56171;SDS011;42052;41.634;-0.946;2023-03-11T02:49:27;1.98;;;1.10;;
56171;SDS011;42052;41.634;-0.946;2023-03-11T02:52:14;1.50;;;1.00;;
56171;SDS011;42052;41.634;-0.946;2023-03-11T02:55:01;1.73;;;0.98;;
56171;SDS011;42052;41.634;-0.946;2023-03-11T02:57:48;2.33;;;1.10;;
56171;SDS011;42052;41.634;-0.946;2023-03-11T03:00:34;1.83;;;0.90;;
56171;SDS011;42052;41.634;-0.946;2023-03-11T03:03:20;2.40;;;1.00;;
56171;SDS011;42052;41.634;-0.946;2023-03-11T03:06:07;2.08;;;0.98;;
56171;SDS011;42052;41.634;-0.946;2023-03-11T03:08:54;2.28;;;1.15;;
56171;SDS011;42052;41.634;-0.946;2023-03-11T03:11:40;2.05;;;1.10;;
56171;SDS011;42052;41.634;-0.946;2023-03-11T03:14:26;3.17;;;1.30;;
56171;SDS011;42052;41.634;-0.946;2023-03-11T03:17:12;2.83;;;1.30;;
56171;SDS011;42052;41.634;-0.946;2023-03-11T03:19:58;2.67;;;1.10;;
56171;SDS011;42052;41.634;-0.946;2023-03-11T03:22:45;3.08;;;1.00;;
56171;SDS011;42052;41.634;-0.946;2023-03-11T03:25:31;2.90;;;1.08;;
56171;SDS011;42052;41.634;-0.946;2023-03-11T03:28:17;2.83;;;1.02;;
56171;SDS011;42052;41.634;-0.946;2023-03-11T03:31:07;2.83;;;0.98;;
56171;SDS011;42052;41.634;-0.946;2023-03-11T03:33:54;2.75;;;1.20;;
56171;SDS011;42052;41.634;-0.946;2023-03-11T03:36:40;2.47;;;1.10;;
56171;SDS011;42052;41.634;-0.946;2023-03-11T03:39:26;1.73;;;1.17;;
56171;SDS011;42052;41.634;-0.946;2023-03-11T03:42:13;2.83;;;1.20;;
56171;SDS011;42052;41.634;-0.946;2023-03-11T03:44:59;3.10;;;1.30;;
56171;SDS011;42052;41.634;-0.946;2023-03-11T03:47:45;3.40;;;1.27;;
56171;SDS011;42052;41.634;-0.946;2023-03-11T03:50:31;2.30;;;1.10;;
56171;SDS011;42052;41.634;-0.946;2023-03-11T03:53:17;4.07;;;1.30;;
56171;SDS011;42052;41.634;-0.946;2023-03-11T03:56:05;3.05;;;1.10;;
56171;SDS011;42052;41.634;-0.946;2023-03-11T03:58:53;2.28;;;1.00;;
56171;SDS011;42052;41.634;-0.946;2023-03-11T04:01:39;2.55;;;1.20;;
56171;SDS011;42052;41.634;-0.946;2023-03-11T04:04:25;2.22;;;0.98;;
56171;SDS011;42052;41.634;-0.946;2023-03-11T04:07:11;3.28;;;1.30;;
56171;SDS011;42052;41.634;-0.946;2023-03-11T04:09:57;1.55;;;1.00;;
56171;SDS011;42052;41.634;-0.946;2023-03-11T04:12:44;2.83;;;1.00;;
56171;SDS011;42052;41.634;-0.946;2023-03-11T04:15:30;2.17;;;1.10;;
56171;SDS011;42052;41.634;-0.946;2023-03-11T04:18:16;3.17;;;1.20;;
56171;SDS011;42052;41.634;-0.946;2023-03-11T04:21:06;3.72;;;1.00;;
56171;SDS011;42052;41.634;-0.946;2023-03-11T04:23:52;1.70;;;0.98;;
56171;SDS011;42052;41.634;-0.946;2023-03-11T04:26:38;2.22;;;1.02;;
56171;SDS011;42052;41.634;-0.946;2023-03-11T04:29:24;2.47;;;1.20;;
56171;SDS011;42052;41.634;-0.946;2023-03-11T04:32:10;2.13;;;1.17;;
56171;SDS011;42052;41.634;-0.946;2023-03-11T04:34:56;1.98;;;1.00;;
56171;SDS011;42052;41.634;-0.946;2023-03-11T04:37:42;3.45;;;1.27;;
56171;SDS011;42052;41.634;-0.946;2023-03-11T04:40:29;4.55;;;1.30;;
56171;SDS011;42052;41.634;-0.946;2023-03-11T04:43:15;2.22;;;1.10;;
56171;SDS011;42052;41.634;-0.946;2023-03-11T04:46:01;2.15;;;1.30;;
56171;SDS011;42052;41.634;-0.946;2023-03-11T04:48:47;2.17;;;1.13;;
56171;SDS011;42052;41.634;-0.946;2023-03-11T04:51:33;2.15;;;1.20;;
56171;SDS011;42052;41.634;-0.946;2023-03-11T04:54:19;1.98;;;1.00;;
56171;SDS011;42052;41.634;-0.946;2023-03-11T04:57:05;2.25;;;1.10;;
56171;SDS011;42052;41.634;-0.946;2023-03-11T04:59:51;2.67;;;1.23;;
56171;SDS011;42052;41.634;-0.946;2023-03-11T05:02:38;2.85;;;1.00;;
56171;SDS011;42052;41.634;-0.946;2023-03-11T05:05:24;1.83;;;1.00;;
56171;SDS011;42052;41.634;-0.946;2023-03-11T05:08:10;2.35;;;1.10;;
56171;SDS011;42052;41.634;-0.946;2023-03-11T05:10:56;2.63;;;1.20;;
56171;SDS011;42052;41.634;-0.946;2023-03-11T05:13:43;1.85;;;1.00;;
56171;SDS011;42052;41.634;-0.946;2023-03-11T05:16:29;1.75;;;1.00;;
56171;SDS011;42052;41.634;-0.946;2023-03-11T05:19:15;3.28;;;0.90;;
56171;SDS011;42052;41.634;-0.946;2023-03-11T05:22:19;2.90;;;1.20;;
56171;SDS011;42052;41.634;-0.946;2023-03-11T05:25:06;3.00;;;1.23;;
56171;SDS011;42052;41.634;-0.946;2023-03-11T05:27:52;2.80;;;1.23;;
56171;SDS011;42052;41.634;-0.946;2023-03-11T05:30:38;1.83;;;1.00;;
56171;SDS011;42052;41.634;-0.946;2023-03-11T05:33:24;2.20;;;1.02;;
56171;SDS011;42052;41.634;-0.946;2023-03-11T05:36:10;2.35;;;1.10;;
56171;SDS011;42052;41.634;-0.946;2023-03-11T05:38:57;2.45;;;0.93;;
56171;SDS011;42052;41.634;-0.946;2023-03-11T05:41:43;1.27;;;0.90;;
56171;SDS011;42052;41.634;-0.946;2023-03-11T05:44:29;2.67;;;1.00;;
56171;SDS011;42052;41.634;-0.946;2023-03-11T05:47:16;2.25;;;1.17;;
56171;SDS011;42052;41.634;-0.946;2023-03-11T05:50:03;2.53;;;1.08;;
56171;SDS011;42052;41.634;-0.946;2023-03-11T05:52:50;2.20;;;0.98;;
56171;SDS011;42052;41.634;-0.946;2023-03-11T05:55:36;2.63;;;1.10;;
56171;SDS011;42052;41.634;-0.946;2023-03-11T05:58:22;3.28;;;1.50;;
56171;SDS011;42052;41.634;-0.946;2023-03-11T06:01:12;3.20;;;1.10;;
56171;SDS011;42052;41.634;-0.946;2023-03-11T06:04:00;1.95;;;1.00;;
56171;SDS011;42052;41.634;-0.946;2023-03-11T06:06:46;2.05;;;0.90;;
56171;SDS011;42052;41.634;-0.946;2023-03-11T06:09:32;1.92;;;1.10;;
56171;SDS011;42052;41.634;-0.946;2023-03-11T06:12:21;3.35;;;1.10;;
56171;SDS011;42052;41.634;-0.946;2023-03-11T06:15:07;2.92;;;1.13;;
56171;SDS011;42052;41.634;-0.946;2023-03-11T06:17:54;3.55;;;1.00;;
56171;SDS011;42052;41.634;-0.946;2023-03-11T06:20:40;1.55;;;0.77;;
56171;SDS011;42052;41.634;-0.946;2023-03-11T06:23:26;2.50;;;1.10;;
56171;SDS011;42052;41.634;-0.946;2023-03-11T06:26:14;2.42;;;1.00;;
56171;SDS011;42052;41.634;-0.946;2023-03-11T06:29:03;1.95;;;0.90;;
56171;SDS011;42052;41.634;-0.946;2023-03-11T06:31:49;3.92;;;1.15;;
56171;SDS011;42052;41.634;-0.946;2023-03-11T06:34:35;2.22;;;0.80;;
56171;SDS011;42052;41.634;-0.946;2023-03-11T06:37:22;2.83;;;0.90;;
56171;SDS011;42052;41.634;-0.946;2023-03-11T06:40:10;2.55;;;0.93;;
56171;SDS011;42052;41.634;-0.946;2023-03-11T06:42:56;1.77;;;0.73;;
56171;SDS011;42052;41.634;-0.946;2023-03-11T06:45:42;1.55;;;0.98;;
56171;SDS011;42052;41.634;-0.946;2023-03-11T06:48:28;1.80;;;0.80;;
56171;SDS011;42052;41.634;-0.946;2023-03-11T06:51:14;1.83;;;1.00;;
56171;SDS011;42052;41.634;-0.946;2023-03-11T06:54:01;1.95;;;0.70;;
56171;SDS011;42052;41.634;-0.946;2023-03-11T06:56:47;1.58;;;0.77;;
56171;SDS011;42052;41.634;-0.946;2023-03-11T06:59:33;1.52;;;0.80;;
56171;SDS011;42052;41.634;-0.946;2023-03-11T07:02:20;1.20;;;0.70;;
56171;SDS011;42052;41.634;-0.946;2023-03-11T07:05:06;1.27;;;0.80;;
56171;SDS011;42052;41.634;-0.946;2023-03-11T07:07:53;1.95;;;0.93;;
56171;SDS011;42052;41.634;-0.946;2023-03-11T07:10:41;1.85;;;0.90;;
56171;SDS011;42052;41.634;-0.946;2023-03-11T07:13:27;1.20;;;0.70;;
56171;SDS011;42052;41.634;-0.946;2023-03-11T07:16:15;1.88;;;0.73;;
56171;SDS011;42052;41.634;-0.946;2023-03-11T07:19:02;1.50;;;0.80;;
56171;SDS011;42052;41.634;-0.946;2023-03-11T07:21:49;1.45;;;0.90;;
56171;SDS011;42052;41.634;-0.946;2023-03-11T07:24:36;1.77;;;0.75;;
56171;SDS011;42052;41.634;-0.946;2023-03-11T07:27:22;1.77;;;0.82;;
56171;SDS011;42052;41.634;-0.946;2023-03-11T07:30:08;1.55;;;0.77;;
56171;SDS011;42052;41.634;-0.946;2023-03-11T07:32:55;1.45;;;0.82;;
56171;SDS011;42052;41.634;-0.946;2023-03-11T07:35:41;1.65;;;1.00;;
56171;SDS011;42052;41.634;-0.946;2023-03-11T07:38:28;3.25;;;1.00;;
56171;SDS011;42052;41.634;-0.946;2023-03-11T07:41:14;1.83;;;0.80;;
56171;SDS011;42052;41.634;-0.946;2023-03-11T07:44:02;1.85;;;0.70;;
56171;SDS011;42052;41.634;-0.946;2023-03-11T07:46:49;0.93;;;0.63;;
56171;SDS011;42052;41.634;-0.946;2023-03-11T07:49:35;1.00;;;0.52;;
56171;SDS011;42052;41.634;-0.946;2023-03-11T07:52:21;1.15;;;0.60;;
56171;SDS011;42052;41.634;-0.946;2023-03-11T07:55:07;2.78;;;0.70;;
56171;SDS011;42052;41.634;-0.946;2023-03-11T07:57:54;1.48;;;0.70;;
56171;SDS011;42052;41.634;-0.946;2023-03-11T08:00:40;0.93;;;0.60;;
56171;SDS011;42052;41.634;-0.946;2023-03-11T08:03:26;1.48;;;0.80;;
56171;SDS011;42052;41.634;-0.946;2023-03-11T08:09:06;1.55;;;0.85;;
56171;SDS011;42052;41.634;-0.946;2023-03-11T08:11:53;1.38;;;0.70;;
56171;SDS011;42052;41.634;-0.946;2023-03-11T08:14:39;2.08;;;0.70;;
56171;SDS011;42052;41.634;-0.946;2023-03-11T08:17:28;1.25;;;0.70;;
56171;SDS011;42052;41.634;-0.946;2023-03-11T08:20:14;2.65;;;0.90;;
56171;SDS011;42052;41.634;-0.946;2023-03-11T08:23:00;4.68;;;1.48;;
56171;SDS011;42052;41.634;-0.946;2023-03-11T08:25:46;9.80;;;2.35;;
56171;SDS011;42052;41.634;-0.946;2023-03-11T08:28:32;15.82;;;3.70;;
56171;SDS011;42052;41.634;-0.946;2023-03-11T08:31:19;15.10;;;3.80;;
56171;SDS011;42052;41.634;-0.946;2023-03-11T08:34:09;16.17;;;3.55;;
56171;SDS011;42052;41.634;-0.946;2023-03-11T08:36:56;24.25;;;4.20;;
56171;SDS011;42052;41.634;-0.946;2023-03-11T08:39:42;25.73;;;4.25;;
56171;SDS011;42052;41.634;-0.946;2023-03-11T08:42:28;21.15;;;4.30;;
56171;SDS011;42052;41.634;-0.946;2023-03-11T08:45:14;31.08;;;5.22;;
56171;SDS011;42052;41.634;-0.946;2023-03-11T08:48:01;21.40;;;5.03;;
56171;SDS011;42052;41.634;-0.946;2023-03-11T08:50:47;26.00;;;5.30;;
56171;SDS011;42052;41.634;-0.946;2023-03-11T08:53:33;23.88;;;5.03;;
56171;SDS011;42052;41.634;-0.946;2023-03-11T08:56:19;27.17;;;4.90;;
56171;SDS011;42052;41.634;-0.946;2023-03-11T08:59:06;24.48;;;5.30;;
56171;SDS011;42052;41.634;-0.946;2023-03-11T09:01:53;25.05;;;5.35;;
56171;SDS011;42052;41.634;-0.946;2023-03-11T09:04:39;23.33;;;4.70;;
56171;SDS011;42052;41.634;-0.946;2023-03-11T09:07:26;23.65;;;5.18;;
56171;SDS011;42052;41.634;-0.946;2023-03-11T09:10:12;25.48;;;5.10;;
56171;SDS011;42052;41.634;-0.946;2023-03-11T09:12:59;18.95;;;4.85;;
56171;SDS011;42052;41.634;-0.946;2023-03-11T09:15:49;21.10;;;4.90;;
56171;SDS011;42052;41.634;-0.946;2023-03-11T09:18:36;21.42;;;5.03;;
56171;SDS011;42052;41.634;-0.946;2023-03-11T09:21:22;19.15;;;4.20;;
56171;SDS011;42052;41.634;-0.946;2023-03-11T09:24:08;16.73;;;4.43;;
56171;SDS011;42052;41.634;-0.946;2023-03-11T09:26:54;21.13;;;4.88;;
56171;SDS011;42052;41.634;-0.946;2023-03-11T09:29:41;18.85;;;4.40;;
56171;SDS011;42052;41.634;-0.946;2023-03-11T09:32:27;14.65;;;3.83;;
56171;SDS011;42052;41.634;-0.946;2023-03-11T09:35:14;17.60;;;4.57;;
56171;SDS011;42052;41.634;-0.946;2023-03-11T09:38:00;16.83;;;4.25;;
56171;SDS011;42052;41.634;-0.946;2023-03-11T09:40:50;16.02;;;4.80;;
56171;SDS011;42052;41.634;-0.946;2023-03-11T09:50:30;12.82;;;4.20;;
56171;SDS011;42052;41.634;-0.946;2023-03-11T09:53:43;15.23;;;4.70;;
56171;SDS011;42052;41.634;-0.946;2023-03-11T09:56:30;15.77;;;3.78;;
56171;SDS011;42052;41.634;-0.946;2023-03-11T09:59:40;14.82;;;3.67;;
56171;SDS011;42052;41.634;-0.946;2023-03-11T10:02:28;15.75;;;4.35;;
56171;SDS011;42052;41.634;-0.946;2023-03-11T10:08:18;13.43;;;3.53;;
56171;SDS011;42052;41.634;-0.946;2023-03-11T10:17:04;12.13;;;3.40;;
56171;SDS011;42052;41.634;-0.946;2023-03-11T10:20:13;10.95;;;3.35;;
56171;SDS011;42052;41.634;-0.946;2023-03-11T10:26:33;15.25;;;3.50;;
56171;SDS011;42052;41.634;-0.946;2023-03-11T10:29:26;10.45;;;3.28;;
56171;SDS011;42052;41.634;-0.946;2023-03-11T10:32:57;8.82;;;3.45;;
56171;SDS011;42052;41.634;-0.946;2023-03-11T10:35:40;9.75;;;3.13;;
56171;SDS011;42052;41.634;-0.946;2023-03-11T10:38:36;9.43;;;2.97;;
56171;SDS011;42052;41.634;-0.946;2023-03-11T10:41:34;9.77;;;2.97;;
56171;SDS011;42052;41.634;-0.946;2023-03-11T10:44:33;9.20;;;2.80;;
56171;SDS011;42052;41.634;-0.946;2023-03-11T10:47:21;9.93;;;3.15;;
56171;SDS011;42052;41.634;-0.946;2023-03-11T10:50:11;12.55;;;2.75;;
56171;SDS011;42052;41.634;-0.946;2023-03-11T10:53:09;11.60;;;3.17;;
56171;SDS011;42052;41.634;-0.946;2023-03-11T10:55:59;9.93;;;3.30;;
56171;SDS011;42052;41.634;-0.946;2023-03-11T10:58:48;10.07;;;3.00;;
56171;SDS011;42052;41.634;-0.946;2023-03-11T11:01:35;11.57;;;3.05;;
56171;SDS011;42052;41.634;-0.946;2023-03-11T11:04:26;7.15;;;2.83;;
56171;SDS011;42052;41.634;-0.946;2023-03-11T11:07:29;9.13;;;2.92;;
56171;SDS011;42052;41.634;-0.946;2023-03-11T11:10:21;8.73;;;2.70;;
56171;SDS011;42052;41.634;-0.946;2023-03-11T11:16:30;9.55;;;2.70;;
56171;SDS011;42052;41.634;-0.946;2023-03-11T11:19:10;7.72;;;2.63;;
56171;SDS011;42052;41.634;-0.946;2023-03-11T11:22:02;9.43;;;2.97;;
56171;SDS011;42052;41.634;-0.946;2023-03-11T11:24:51;10.02;;;2.72;;
56171;SDS011;42052;41.634;-0.946;2023-03-11T11:27:39;6.43;;;2.58;;
56171;SDS011;42052;41.634;-0.946;2023-03-11T11:30:59;8.57;;;2.60;;
56171;SDS011;42052;41.634;-0.946;2023-03-11T11:33:48;7.80;;;2.50;;
56171;SDS011;42052;41.634;-0.946;2023-03-11T11:36:36;6.50;;;2.03;;
56171;SDS011;42052;41.634;-0.946;2023-03-11T11:39:25;6.20;;;2.20;;
56171;SDS011;42052;41.634;-0.946;2023-03-11T11:42:13;9.32;;;2.58;;
56171;SDS011;42052;41.634;-0.946;2023-03-11T11:45:03;6.78;;;2.70;;
56171;SDS011;42052;41.634;-0.946;2023-03-11T11:48:18;5.20;;;2.20;;
56171;SDS011;42052;41.634;-0.946;2023-03-11T11:51:13;6.43;;;2.30;;
56171;SDS011;42052;41.634;-0.946;2023-03-11T11:57:18;9.68;;;2.33;;
56171;SDS011;42052;41.634;-0.946;2023-03-11T12:00:19;7.05;;;2.75;;
56171;SDS011;42052;41.634;-0.946;2023-03-11T12:06:28;6.88;;;2.30;;
56171;SDS011;42052;41.634;-0.946;2023-03-11T12:09:21;6.50;;;2.20;;
56171;SDS011;42052;41.634;-0.946;2023-03-11T12:17:52;6.65;;;2.15;;
56171;SDS011;42052;41.634;-0.946;2023-03-11T12:20:44;6.93;;;2.00;;
56171;SDS011;42052;41.634;-0.946;2023-03-11T12:26:42;6.15;;;2.20;;
56171;SDS011;42052;41.634;-0.946;2023-03-11T12:35:29;6.47;;;2.25;;
56171;SDS011;42052;41.634;-0.946;2023-03-11T12:38:20;5.45;;;1.77;;
56171;SDS011;42052;41.634;-0.946;2023-03-11T12:41:27;5.28;;;2.38;;
56171;SDS011;42052;41.634;-0.946;2023-03-11T12:59:37;40.55;;;12.00;;
56171;SDS011;42052;41.634;-0.946;2023-03-11T13:06:14;28.83;;;8.48;;
56171;SDS011;42052;41.634;-0.946;2023-03-11T13:09:10;27.73;;;8.07;;
56171;SDS011;42052;41.634;-0.946;2023-03-11T13:12:00;22.20;;;7.50;;
56171;SDS011;42052;41.634;-0.946;2023-03-11T13:14:46;24.35;;;7.80;;
56171;SDS011;42052;41.634;-0.946;2023-03-11T13:17:32;21.95;;;7.38;;
56171;SDS011;42052;41.634;-0.946;2023-03-11T13:26:28;24.85;;;7.60;;
56171;SDS011;42052;41.634;-0.946;2023-03-11T13:29:24;22.83;;;7.43;;
56171;SDS011;42052;41.634;-0.946;2023-03-11T13:45:32;20.23;;;6.93;;
56171;SDS011;42052;41.634;-0.946;2023-03-11T13:48:22;20.15;;;6.78;;
56171;SDS011;42052;41.634;-0.946;2023-03-11T13:57:32;18.77;;;6.68;;
56171;SDS011;42052;41.634;-0.946;2023-03-11T14:00:23;18.85;;;6.55;;
56171;SDS011;42052;41.634;-0.946;2023-03-11T14:03:12;21.10;;;6.55;;
56171;SDS011;42052;41.634;-0.946;2023-03-11T14:09:14;16.27;;;6.35;;
56171;SDS011;42052;41.634;-0.946;2023-03-11T14:12:04;17.10;;;6.00;;
56171;SDS011;42052;41.634;-0.946;2023-03-11T14:14:55;17.25;;;5.85;;
56171;SDS011;42052;41.634;-0.946;2023-03-11T14:17:46;17.30;;;6.03;;
56171;SDS011;42052;41.634;-0.946;2023-03-11T14:20:33;18.02;;;6.18;;
56171;SDS011;42052;41.634;-0.946;2023-03-11T14:23:19;17.83;;;5.80;;
56171;SDS011;42052;41.634;-0.946;2023-03-11T14:26:07;18.05;;;6.07;;
56171;SDS011;42052;41.634;-0.946;2023-03-11T14:28:58;19.63;;;6.20;;
56171;SDS011;42052;41.634;-0.946;2023-03-11T14:31:51;16.08;;;6.00;;
56171;SDS011;42052;41.634;-0.946;2023-03-11T14:34:38;14.20;;;5.80;;
56171;SDS011;42052;41.634;-0.946;2023-03-11T14:37:32;15.80;;;5.90;;
56171;SDS011;42052;41.634;-0.946;2023-03-11T14:43:27;15.20;;;5.80;;
56171;SDS011;42052;41.634;-0.946;2023-03-11T14:46:21;15.35;;;5.80;;
56171;SDS011;42052;41.634;-0.946;2023-03-11T14:49:17;14.10;;;5.53;;
56171;SDS011;42052;41.634;-0.946;2023-03-11T14:52:07;13.15;;;5.35;;
56171;SDS011;42052;41.634;-0.946;2023-03-11T14:55:00;13.15;;;5.35;;
56171;SDS011;42052;41.634;-0.946;2023-03-11T15:00:49;14.38;;;5.28;;
56171;SDS011;42052;41.634;-0.946;2023-03-11T15:06:52;12.43;;;5.22;;
56171;SDS011;42052;41.634;-0.946;2023-03-11T15:09:39;13.07;;;5.10;;
56171;SDS011;42052;41.634;-0.946;2023-03-11T15:12:44;11.88;;;5.05;;
56171;SDS011;42052;41.634;-0.946;2023-03-11T15:15:30;12.90;;;5.05;;
56171;SDS011;42052;41.634;-0.946;2023-03-11T15:18:19;13.00;;;5.05;;
56171;SDS011;42052;41.634;-0.946;2023-03-11T15:21:15;10.85;;;4.72;;
56171;SDS011;42052;41.634;-0.946;2023-03-11T15:24:03;11.05;;;4.50;;
56171;SDS011;42052;41.634;-0.946;2023-03-11T15:26:52;12.63;;;5.13;;
56171;SDS011;42052;41.634;-0.946;2023-03-11T15:29:45;12.25;;;4.85;;
56171;SDS011;42052;41.634;-0.946;2023-03-11T15:32:38;13.68;;;5.15;;
56171;SDS011;42052;41.634;-0.946;2023-03-11T15:35:28;13.88;;;5.32;;
56171;SDS011;42052;41.634;-0.946;2023-03-11T15:38:22;11.82;;;4.53;;
56171;SDS011;42052;41.634;-0.946;2023-03-11T15:41:12;11.20;;;5.07;;
56171;SDS011;42052;41.634;-0.946;2023-03-11T15:44:00;11.90;;;4.78;;
56171;SDS011;42052;41.634;-0.946;2023-03-11T15:46:48;12.02;;;4.90;;
56171;SDS011;42052;41.634;-0.946;2023-03-11T15:49:34;10.13;;;4.25;;
56171;SDS011;42052;41.634;-0.946;2023-03-11T15:52:20;13.15;;;5.10;;
56171;SDS011;42052;41.634;-0.946;2023-03-11T15:55:07;12.48;;;4.53;;
56171;SDS011;42052;41.634;-0.946;2023-03-11T15:58:05;10.27;;;4.30;;
56171;SDS011;42052;41.634;-0.946;2023-03-11T16:00:54;12.38;;;5.10;;
56171;SDS011;42052;41.634;-0.946;2023-03-11T16:03:41;10.45;;;4.65;;
56171;SDS011;42052;41.634;-0.946;2023-03-11T16:06:27;10.52;;;4.35;;
56171;SDS011;42052;41.634;-0.946;2023-03-11T16:09:14;10.10;;;4.40;;
56171;SDS011;42052;41.634;-0.946;2023-03-11T16:12:01;10.48;;;4.28;;
56171;SDS011;42052;41.634;-0.946;2023-03-11T16:14:53;10.05;;;4.30;;
56171;SDS011;42052;41.634;-0.946;2023-03-11T16:17:39;9.23;;;4.50;;
56171;SDS011;42052;41.634;-0.946;2023-03-11T16:20:27;9.98;;;4.00;;
56171;SDS011;42052;41.634;-0.946;2023-03-11T16:23:21;9.20;;;4.20;;
56171;SDS011;42052;41.634;-0.946;2023-03-11T16:28:56;9.07;;;4.05;;
56171;SDS011;42052;41.634;-0.946;2023-03-11T16:31:43;9.73;;;4.30;;
56171;SDS011;42052;41.634;-0.946;2023-03-11T16:34:29;8.93;;;3.85;;
56171;SDS011;42052;41.634;-0.946;2023-03-11T16:37:16;8.77;;;4.10;;
56171;SDS011;42052;41.634;-0.946;2023-03-11T16:40:06;9.98;;;4.22;;
56171;SDS011;42052;41.634;-0.946;2023-03-11T16:43:11;8.52;;;4.03;;
56171;SDS011;42052;41.634;-0.946;2023-03-11T16:46:00;8.82;;;3.95;;
56171;SDS011;42052;41.634;-0.946;2023-03-11T16:48:46;8.30;;;3.63;;
56171;SDS011;42052;41.634;-0.946;2023-03-11T16:51:33;9.30;;;3.65;;
56171;SDS011;42052;41.634;-0.946;2023-03-11T16:54:19;8.30;;;3.97;;
56171;SDS011;42052;41.634;-0.946;2023-03-11T16:57:05;8.65;;;4.30;;
56171;SDS011;42052;41.634;-0.946;2023-03-11T16:59:51;7.20;;;3.88;;
56171;SDS011;42052;41.634;-0.946;2023-03-11T17:02:37;7.63;;;3.65;;
56171;SDS011;42052;41.634;-0.946;2023-03-11T17:05:24;7.45;;;3.30;;
56171;SDS011;42052;41.634;-0.946;2023-03-11T17:08:10;7.88;;;3.70;;
56171;SDS011;42052;41.634;-0.946;2023-03-11T17:10:57;9.27;;;3.78;;
56171;SDS011;42052;41.634;-0.946;2023-03-11T17:13:43;6.32;;;3.60;;
56171;SDS011;42052;41.634;-0.946;2023-03-11T17:16:32;7.53;;;3.88;;
56171;SDS011;42052;41.634;-0.946;2023-03-11T17:19:19;7.15;;;3.53;;
56171;SDS011;42052;41.634;-0.946;2023-03-11T17:22:05;7.47;;;3.85;;
56171;SDS011;42052;41.634;-0.946;2023-03-11T17:24:52;8.95;;;3.83;;
56171;SDS011;42052;41.634;-0.946;2023-03-11T17:27:38;6.78;;;3.67;;
56171;SDS011;42052;41.634;-0.946;2023-03-11T17:30:24;8.07;;;3.67;;
56171;SDS011;42052;41.634;-0.946;2023-03-11T17:33:11;7.07;;;3.35;;
56171;SDS011;42052;41.634;-0.946;2023-03-11T17:36:03;8.38;;;3.88;;
56171;SDS011;42052;41.634;-0.946;2023-03-11T17:38:52;6.25;;;3.25;;
56171;SDS011;42052;41.634;-0.946;2023-03-11T17:41:38;8.30;;;3.50;;
56171;SDS011;42052;41.634;-0.946;2023-03-11T17:44:25;6.90;;;3.45;;
56171;SDS011;42052;41.634;-0.946;2023-03-11T17:47:11;6.72;;;3.40;;
56171;SDS011;42052;41.634;-0.946;2023-03-11T17:49:57;8.73;;;3.60;;
56171;SDS011;42052;41.634;-0.946;2023-03-11T17:52:44;7.13;;;3.42;;
56171;SDS011;42052;41.634;-0.946;2023-03-11T17:55:31;6.65;;;3.45;;
56171;SDS011;42052;41.634;-0.946;2023-03-11T17:58:18;7.18;;;3.30;;
56171;SDS011;42052;41.634;-0.946;2023-03-11T18:01:05;6.40;;;3.30;;
56171;SDS011;42052;41.634;-0.946;2023-03-11T18:03:53;6.80;;;3.40;;
56171;SDS011;42052;41.634;-0.946;2023-03-11T18:06:40;6.50;;;3.38;;
56171;SDS011;42052;41.634;-0.946;2023-03-11T18:09:26;6.35;;;3.10;;
56171;SDS011;42052;41.634;-0.946;2023-03-11T18:12:12;6.32;;;3.50;;
56171;SDS011;42052;41.634;-0.946;2023-03-11T18:14:59;5.60;;;3.10;;
56171;SDS011;42052;41.634;-0.946;2023-03-11T18:17:48;5.10;;;2.75;;
56171;SDS011;42052;41.634;-0.946;2023-03-11T18:20:37;5.95;;;2.88;;
56171;SDS011;42052;41.634;-0.946;2023-03-11T18:23:23;8.85;;;3.22;;
56171;SDS011;42052;41.634;-0.946;2023-03-11T18:26:11;5.78;;;3.03;;
56171;SDS011;42052;41.634;-0.946;2023-03-11T18:28:58;6.13;;;3.20;;
56171;SDS011;42052;41.634;-0.946;2023-03-11T18:31:45;6.32;;;3.00;;
56171;SDS011;42052;41.634;-0.946;2023-03-11T18:34:31;4.18;;;2.65;;